sensor_id;sensor_type;location;lat;lon;timestamp;temperature;humidity
21734;DHT22;11029;47.820;10.534;2023-06-26T00:01:04;16.00;57.90
21734;DHT22;11029;47.820;10.534;2023-06-26T00:03:32;16.10;57.60
21734;DHT22;11029;47.820;10.534;2023-06-26T00:05:59;16.00;58.10
21734;DHT22;11029;47.820;10.534;2023-06-26T00:08:28;15.90;58.50
21734;DHT22;11029;47.820;10.534;2023-06-26T00:10:55;15.80;58.80
21734;DHT22;11029;47.820;10.534;2023-06-26T00:13:23;15.60;59.30
21734;DHT22;11029;47.820;10.534;2023-06-26T00:15:50;15.60;59.00
21734;DHT22;11029;47.820;10.534;2023-06-26T00:18:17;15.70;59.10
21734;DHT22;11029;47.820;10.534;2023-06-26T00:20:44;15.70;58.70
21734;DHT22;11029;47.820;10.534;2023-06-26T00:23:12;15.70;58.70
21734;DHT22;11029;47.820;10.534;2023-06-26T00:25:40;15.80;58.50
21734;DHT22;11029;47.820;10.534;2023-06-26T00:28:06;15.70;58.40
21734;DHT22;11029;47.820;10.534;2023-06-26T00:30:33;15.80;58.40
21734;DHT22;11029;47.820;10.534;2023-06-26T00:33:00;15.70;58.20
21734;DHT22;11029;47.820;10.534;2023-06-26T00:35:27;15.60;57.80
21734;DHT22;11029;47.820;10.534;2023-06-26T00:37:54;15.40;58.60
21734;DHT22;11029;47.820;10.534;2023-06-26T00:40:21;15.30;59.10
21734;DHT22;11029;47.820;10.534;2023-06-26T00:42:48;15.30;59.30
21734;DHT22;11029;47.820;10.534;2023-06-26T00:45:14;15.20;59.70
21734;DHT22;11029;47.820;10.534;2023-06-26T00:47:45;15.30;59.80
21734;DHT22;11029;47.820;10.534;2023-06-26T00:50:12;15.30;59.60
21734;DHT22;11029;47.820;10.534;2023-06-26T00:52:40;15.30;59.70
21734;DHT22;11029;47.820;10.534;2023-06-26T00:55:07;15.30;59.50
21734;DHT22;11029;47.820;10.534;2023-06-26T00:57:35;15.30;59.70
21734;DHT22;11029;47.820;10.534;2023-06-26T01:00:03;15.20;60.10
21734;DHT22;11029;47.820;10.534;2023-06-26T01:02:30;15.10;60.00
21734;DHT22;11029;47.820;10.534;2023-06-26T01:05:01;15.20;59.90
21734;DHT22;11029;47.820;10.534;2023-06-26T01:07:35;15.00;60.20
21734;DHT22;11029;47.820;10.534;2023-06-26T01:10:06;15.00;59.80
21734;DHT22;11029;47.820;10.534;2023-06-26T01:12:33;14.90;60.00
21734;DHT22;11029;47.820;10.534;2023-06-26T01:15:01;14.90;60.10
21734;DHT22;11029;47.820;10.534;2023-06-26T01:17:28;14.90;60.10
21734;DHT22;11029;47.820;10.534;2023-06-26T01:19:59;15.10;59.60
21734;DHT22;11029;47.820;10.534;2023-06-26T01:25:22;15.10;58.80
21734;DHT22;11029;47.820;10.534;2023-06-26T01:27:52;14.90;59.50
21734;DHT22;11029;47.820;10.534;2023-06-26T01:30:21;14.80;59.60
21734;DHT22;11029;47.820;10.534;2023-06-26T01:32:49;14.70;60.30
21734;DHT22;11029;47.820;10.534;2023-06-26T01:35:17;14.70;60.20
21734;DHT22;11029;47.820;10.534;2023-06-26T01:37:44;14.70;60.50
21734;DHT22;11029;47.820;10.534;2023-06-26T01:40:11;14.60;60.50
21734;DHT22;11029;47.820;10.534;2023-06-26T01:42:39;14.60;60.80
21734;DHT22;11029;47.820;10.534;2023-06-26T01:45:21;14.60;60.90
21734;DHT22;11029;47.820;10.534;2023-06-26T01:47:51;14.60;61.20
21734;DHT22;11029;47.820;10.534;2023-06-26T01:50:22;14.50;61.30
21734;DHT22;11029;47.820;10.534;2023-06-26T01:53:25;14.50;61.20
21734;DHT22;11029;47.820;10.534;2023-06-26T01:56:01;14.50;60.40
21734;DHT22;11029;47.820;10.534;2023-06-26T01:58:33;14.50;60.50
21734;DHT22;11029;47.820;10.534;2023-06-26T02:01:00;14.50;60.70
21734;DHT22;11029;47.820;10.534;2023-06-26T02:03:27;14.50;60.60
21734;DHT22;11029;47.820;10.534;2023-06-26T02:05:54;14.50;60.60
21734;DHT22;11029;47.820;10.534;2023-06-26T02:08:21;14.60;60.10
21734;DHT22;11029;47.820;10.534;2023-06-26T02:10:49;14.50;60.50
21734;DHT22;11029;47.820;10.534;2023-06-26T02:13:16;14.50;60.40
21734;DHT22;11029;47.820;10.534;2023-06-26T02:15:43;14.50;60.50
21734;DHT22;11029;47.820;10.534;2023-06-26T02:18:09;14.50;60.60
21734;DHT22;11029;47.820;10.534;2023-06-26T02:20:37;14.40;60.60
21734;DHT22;11029;47.820;10.534;2023-06-26T02:23:04;14.40;60.90
21734;DHT22;11029;47.820;10.534;2023-06-26T02:25:30;14.50;60.40
21734;DHT22;11029;47.820;10.534;2023-06-26T02:27:57;14.40;60.30
21734;DHT22;11029;47.820;10.534;2023-06-26T02:30:24;14.30;60.90
21734;DHT22;11029;47.820;10.534;2023-06-26T02:32:51;14.30;60.90
21734;DHT22;11029;47.820;10.534;2023-06-26T02:35:18;14.20;61.20
21734;DHT22;11029;47.820;10.534;2023-06-26T02:37:44;14.30;60.70
21734;DHT22;11029;47.820;10.534;2023-06-26T02:40:12;14.20;61.20
21734;DHT22;11029;47.820;10.534;2023-06-26T02:42:40;14.20;60.60
21734;DHT22;11029;47.820;10.534;2023-06-26T02:45:08;14.20;60.60
21734;DHT22;11029;47.820;10.534;2023-06-26T02:47:35;14.20;60.80
21734;DHT22;11029;47.820;10.534;2023-06-26T02:50:04;14.20;60.50
21734;DHT22;11029;47.820;10.534;2023-06-26T02:52:43;14.20;60.50
21734;DHT22;11029;47.820;10.534;2023-06-26T02:55:11;14.20;60.30
21734;DHT22;11029;47.820;10.534;2023-06-26T02:57:37;14.20;60.40
21734;DHT22;11029;47.820;10.534;2023-06-26T03:00:05;14.10;60.70
21734;DHT22;11029;47.820;10.534;2023-06-26T03:02:40;14.00;61.40
21734;DHT22;11029;47.820;10.534;2023-06-26T03:05:09;14.00;61.40
21734;DHT22;11029;47.820;10.534;2023-06-26T03:07:37;14.00;61.40
21734;DHT22;11029;47.820;10.534;2023-06-26T03:10:04;14.10;61.50
21734;DHT22;11029;47.820;10.534;2023-06-26T03:12:32;13.90;61.50
21734;DHT22;11029;47.820;10.534;2023-06-26T03:15:01;14.00;61.40
21734;DHT22;11029;47.820;10.534;2023-06-26T03:17:38;14.00;61.40
21734;DHT22;11029;47.820;10.534;2023-06-26T03:20:08;13.90;61.90
21734;DHT22;11029;47.820;10.534;2023-06-26T03:22:46;14.00;61.90
21734;DHT22;11029;47.820;10.534;2023-06-26T03:25:16;13.90;62.20
21734;DHT22;11029;47.820;10.534;2023-06-26T03:27:43;13.90;62.10
21734;DHT22;11029;47.820;10.534;2023-06-26T03:30:10;13.90;62.10
21734;DHT22;11029;47.820;10.534;2023-06-26T03:32:39;13.90;62.10
21734;DHT22;11029;47.820;10.534;2023-06-26T03:35:06;14.10;61.40
21734;DHT22;11029;47.820;10.534;2023-06-26T03:37:33;14.00;61.30
21734;DHT22;11029;47.820;10.534;2023-06-26T03:40:00;14.00;61.50
21734;DHT22;11029;47.820;10.534;2023-06-26T03:42:27;14.00;61.50
21734;DHT22;11029;47.820;10.534;2023-06-26T03:44:54;14.00;61.70
21734;DHT22;11029;47.820;10.534;2023-06-26T03:47:20;14.00;61.70
21734;DHT22;11029;47.820;10.534;2023-06-26T03:49:47;13.90;62.20
21734;DHT22;11029;47.820;10.534;2023-06-26T03:52:14;13.90;62.50
21734;DHT22;11029;47.820;10.534;2023-06-26T03:54:41;13.90;62.60
21734;DHT22;11029;47.820;10.534;2023-06-26T03:57:09;13.90;62.50
21734;DHT22;11029;47.820;10.534;2023-06-26T03:59:36;13.90;62.70
21734;DHT22;11029;47.820;10.534;2023-06-26T04:02:03;14.00;62.50
21734;DHT22;11029;47.820;10.534;2023-06-26T04:04:30;14.00;62.60
21734;DHT22;11029;47.820;10.534;2023-06-26T04:06:58;14.10;62.80
21734;DHT22;11029;47.820;10.534;2023-06-26T04:09:26;14.20;62.70
21734;DHT22;11029;47.820;10.534;2023-06-26T04:11:53;14.30;62.60
21734;DHT22;11029;47.820;10.534;2023-06-26T04:14:19;14.30;62.80
21734;DHT22;11029;47.820;10.534;2023-06-26T04:16:46;14.30;62.80
21734;DHT22;11029;47.820;10.534;2023-06-26T04:19:13;14.50;62.60
21734;DHT22;11029;47.820;10.534;2023-06-26T04:21:40;14.60;61.90
21734;DHT22;11029;47.820;10.534;2023-06-26T04:24:07;14.60;61.90
21734;DHT22;11029;47.820;10.534;2023-06-26T04:26:34;14.70;61.70
21734;DHT22;11029;47.820;10.534;2023-06-26T04:29:01;14.70;61.80
21734;DHT22;11029;47.820;10.534;2023-06-26T04:31:28;14.70;61.50
21734;DHT22;11029;47.820;10.534;2023-06-26T04:33:54;14.80;61.80
21734;DHT22;11029;47.820;10.534;2023-06-26T04:36:22;14.80;61.60
21734;DHT22;11029;47.820;10.534;2023-06-26T04:38:48;14.90;61.50
21734;DHT22;11029;47.820;10.534;2023-06-26T04:41:15;15.00;61.60
21734;DHT22;11029;47.820;10.534;2023-06-26T04:43:42;15.10;61.60
21734;DHT22;11029;47.820;10.534;2023-06-26T04:46:09;15.20;61.20
21734;DHT22;11029;47.820;10.534;2023-06-26T04:48:36;15.30;61.10
21734;DHT22;11029;47.820;10.534;2023-06-26T04:51:03;15.50;60.90
21734;DHT22;11029;47.820;10.534;2023-06-26T04:53:29;15.60;60.90
21734;DHT22;11029;47.820;10.534;2023-06-26T04:55:56;15.70;60.90
21734;DHT22;11029;47.820;10.534;2023-06-26T04:58:23;15.80;60.70
21734;DHT22;11029;47.820;10.534;2023-06-26T05:00:50;15.90;60.70
21734;DHT22;11029;47.820;10.534;2023-06-26T05:03:17;16.10;60.70
21734;DHT22;11029;47.820;10.534;2023-06-26T05:05:45;16.30;60.20
21734;DHT22;11029;47.820;10.534;2023-06-26T05:08:20;16.50;59.90
21734;DHT22;11029;47.820;10.534;2023-06-26T05:10:47;16.60;59.80
21734;DHT22;11029;47.820;10.534;2023-06-26T05:13:13;16.80;59.70
21734;DHT22;11029;47.820;10.534;2023-06-26T05:15:44;16.90;59.30
21734;DHT22;11029;47.820;10.534;2023-06-26T05:18:11;17.20;59.20
21734;DHT22;11029;47.820;10.534;2023-06-26T05:20:38;17.40;60.20
21734;DHT22;11029;47.820;10.534;2023-06-26T05:23:06;17.60;60.30
21734;DHT22;11029;47.820;10.534;2023-06-26T05:25:33;17.80;60.80
21734;DHT22;11029;47.820;10.534;2023-06-26T05:28:01;18.10;60.30
21734;DHT22;11029;47.820;10.534;2023-06-26T05:30:28;18.30;60.10
21734;DHT22;11029;47.820;10.534;2023-06-26T05:32:55;18.60;59.60
21734;DHT22;11029;47.820;10.534;2023-06-26T05:35:22;18.90;58.50
21734;DHT22;11029;47.820;10.534;2023-06-26T05:37:50;19.20;57.90
21734;DHT22;11029;47.820;10.534;2023-06-26T05:40:18;19.40;57.50
21734;DHT22;11029;47.820;10.534;2023-06-26T05:42:45;19.60;56.10
21734;DHT22;11029;47.820;10.534;2023-06-26T05:45:12;19.80;55.40
21734;DHT22;11029;47.820;10.534;2023-06-26T05:47:39;20.00;54.40
21734;DHT22;11029;47.820;10.534;2023-06-26T05:50:07;20.10;54.80
21734;DHT22;11029;47.820;10.534;2023-06-26T05:52:34;20.20;55.20
21734;DHT22;11029;47.820;10.534;2023-06-26T05:55:02;20.30;54.10
21734;DHT22;11029;47.820;10.534;2023-06-26T05:57:30;20.40;54.00
21734;DHT22;11029;47.820;10.534;2023-06-26T05:59:57;20.50;53.40
21734;DHT22;11029;47.820;10.534;2023-06-26T06:02:24;20.60;53.60
21734;DHT22;11029;47.820;10.534;2023-06-26T06:04:51;20.70;52.50
21734;DHT22;11029;47.820;10.534;2023-06-26T06:07:18;20.80;53.30
21734;DHT22;11029;47.820;10.534;2023-06-26T06:09:44;20.90;53.20
21734;DHT22;11029;47.820;10.534;2023-06-26T06:12:11;20.90;53.10
21734;DHT22;11029;47.820;10.534;2023-06-26T06:14:38;21.00;53.20
21734;DHT22;11029;47.820;10.534;2023-06-26T06:17:04;21.00;52.90
21734;DHT22;11029;47.820;10.534;2023-06-26T06:19:31;21.00;52.80
21734;DHT22;11029;47.820;10.534;2023-06-26T06:21:58;21.10;53.50
21734;DHT22;11029;47.820;10.534;2023-06-26T06:24:25;21.20;52.80
21734;DHT22;11029;47.820;10.534;2023-06-26T06:26:52;21.30;52.60
21734;DHT22;11029;47.820;10.534;2023-06-26T06:29:18;21.30;52.00
21734;DHT22;11029;47.820;10.534;2023-06-26T06:31:47;21.40;52.50
21734;DHT22;11029;47.820;10.534;2023-06-26T06:34:13;21.50;52.90
21734;DHT22;11029;47.820;10.534;2023-06-26T06:36:40;21.60;51.70
21734;DHT22;11029;47.820;10.534;2023-06-26T06:39:07;21.60;50.80
21734;DHT22;11029;47.820;10.534;2023-06-26T06:41:34;21.60;51.20
21734;DHT22;11029;47.820;10.534;2023-06-26T06:44:05;21.70;51.20
21734;DHT22;11029;47.820;10.534;2023-06-26T06:46:32;21.80;52.10
21734;DHT22;11029;47.820;10.534;2023-06-26T06:48:58;21.90;52.20
21734;DHT22;11029;47.820;10.534;2023-06-26T06:51:26;22.00;51.00
21734;DHT22;11029;47.820;10.534;2023-06-26T06:53:53;22.00;50.70
21734;DHT22;11029;47.820;10.534;2023-06-26T06:56:20;22.10;51.00
21734;DHT22;11029;47.820;10.534;2023-06-26T06:58:47;22.20;51.00
21734;DHT22;11029;47.820;10.534;2023-06-26T07:01:13;22.30;50.70
21734;DHT22;11029;47.820;10.534;2023-06-26T07:03:40;22.40;49.50
21734;DHT22;11029;47.820;10.534;2023-06-26T07:06:08;22.50;49.60
21734;DHT22;11029;47.820;10.534;2023-06-26T07:08:35;22.50;48.90
21734;DHT22;11029;47.820;10.534;2023-06-26T07:11:01;22.60;48.80
21734;DHT22;11029;47.820;10.534;2023-06-26T07:13:29;22.50;48.30
21734;DHT22;11029;47.820;10.534;2023-06-26T07:15:56;22.60;48.70
21734;DHT22;11029;47.820;10.534;2023-06-26T07:18:23;22.60;49.20
21734;DHT22;11029;47.820;10.534;2023-06-26T07:20:50;22.70;48.00
21734;DHT22;11029;47.820;10.534;2023-06-26T07:23:16;22.80;49.30
21734;DHT22;11029;47.820;10.534;2023-06-26T07:25:43;22.80;48.40
21734;DHT22;11029;47.820;10.534;2023-06-26T07:28:11;22.90;48.20
21734;DHT22;11029;47.820;10.534;2023-06-26T07:30:38;22.90;48.20
21734;DHT22;11029;47.820;10.534;2023-06-26T07:33:06;23.00;48.20
21734;DHT22;11029;47.820;10.534;2023-06-26T07:35:33;23.10;48.70
21734;DHT22;11029;47.820;10.534;2023-06-26T07:38:00;23.20;46.80
21734;DHT22;11029;47.820;10.534;2023-06-26T07:40:27;23.20;46.90
21734;DHT22;11029;47.820;10.534;2023-06-26T07:42:54;23.30;47.50
21734;DHT22;11029;47.820;10.534;2023-06-26T07:45:20;23.40;47.60
21734;DHT22;11029;47.820;10.534;2023-06-26T07:47:49;23.50;47.40
21734;DHT22;11029;47.820;10.534;2023-06-26T07:50:15;23.70;46.90
21734;DHT22;11029;47.820;10.534;2023-06-26T07:52:48;23.80;45.90
21734;DHT22;11029;47.820;10.534;2023-06-26T07:55:15;23.80;45.60
21734;DHT22;11029;47.820;10.534;2023-06-26T07:57:41;23.90;45.20
21734;DHT22;11029;47.820;10.534;2023-06-26T08:00:09;23.80;44.20
21734;DHT22;11029;47.820;10.534;2023-06-26T08:02:41;23.80;44.10
21734;DHT22;11029;47.820;10.534;2023-06-26T08:05:08;23.90;44.40
21734;DHT22;11029;47.820;10.534;2023-06-26T08:07:35;24.00;44.80
21734;DHT22;11029;47.820;10.534;2023-06-26T08:10:02;24.00;44.70
21734;DHT22;11029;47.820;10.534;2023-06-26T08:12:29;24.10;44.40
21734;DHT22;11029;47.820;10.534;2023-06-26T08:14:56;24.20;43.50
21734;DHT22;11029;47.820;10.534;2023-06-26T08:17:22;24.20;43.10
21734;DHT22;11029;47.820;10.534;2023-06-26T08:19:49;24.30;42.90
21734;DHT22;11029;47.820;10.534;2023-06-26T08:22:16;24.30;43.20
21734;DHT22;11029;47.820;10.534;2023-06-26T08:24:43;24.40;43.10
21734;DHT22;11029;47.820;10.534;2023-06-26T08:27:10;24.40;43.00
21734;DHT22;11029;47.820;10.534;2023-06-26T08:29:36;24.50;42.50
21734;DHT22;11029;47.820;10.534;2023-06-26T08:32:03;24.60;42.70
21734;DHT22;11029;47.820;10.534;2023-06-26T08:34:30;24.60;42.40
21734;DHT22;11029;47.820;10.534;2023-06-26T08:36:57;24.70;42.50
21734;DHT22;11029;47.820;10.534;2023-06-26T08:39:24;24.80;42.70
21734;DHT22;11029;47.820;10.534;2023-06-26T08:41:51;24.80;42.10
21734;DHT22;11029;47.820;10.534;2023-06-26T08:44:18;24.80;41.70
21734;DHT22;11029;47.820;10.534;2023-06-26T08:46:45;24.90;41.80
21734;DHT22;11029;47.820;10.534;2023-06-26T08:49:25;25.00;42.60
21734;DHT22;11029;47.820;10.534;2023-06-26T08:51:58;25.00;41.60
21734;DHT22;11029;47.820;10.534;2023-06-26T08:54:34;25.00;42.80
21734;DHT22;11029;47.820;10.534;2023-06-26T08:57:01;24.90;42.20
21734;DHT22;11029;47.820;10.534;2023-06-26T08:59:29;24.90;41.30
21734;DHT22;11029;47.820;10.534;2023-06-26T09:01:56;24.90;40.90
21734;DHT22;11029;47.820;10.534;2023-06-26T09:04:24;24.90;41.30
21734;DHT22;11029;47.820;10.534;2023-06-26T09:06:51;25.10;41.60
21734;DHT22;11029;47.820;10.534;2023-06-26T09:09:18;25.20;42.20
21734;DHT22;11029;47.820;10.534;2023-06-26T09:11:45;25.30;42.10
21734;DHT22;11029;47.820;10.534;2023-06-26T09:14:12;25.30;41.60
21734;DHT22;11029;47.820;10.534;2023-06-26T09:16:40;25.20;40.50
21734;DHT22;11029;47.820;10.534;2023-06-26T09:19:11;25.30;41.60
21734;DHT22;11029;47.820;10.534;2023-06-26T09:21:42;25.40;41.30
21734;DHT22;11029;47.820;10.534;2023-06-26T09:24:10;25.50;42.70
21734;DHT22;11029;47.820;10.534;2023-06-26T09:26:38;25.50;43.00
21734;DHT22;11029;47.820;10.534;2023-06-26T09:29:05;25.60;41.40
21734;DHT22;11029;47.820;10.534;2023-06-26T09:31:33;25.50;41.90
21734;DHT22;11029;47.820;10.534;2023-06-26T09:34:07;25.50;39.40
21734;DHT22;11029;47.820;10.534;2023-06-26T09:36:34;25.50;40.40
21734;DHT22;11029;47.820;10.534;2023-06-26T09:39:07;25.40;41.40
21734;DHT22;11029;47.820;10.534;2023-06-26T09:41:40;25.40;40.70
21734;DHT22;11029;47.820;10.534;2023-06-26T09:44:11;25.50;41.40
21734;DHT22;11029;47.820;10.534;2023-06-26T09:46:38;25.70;41.30
21734;DHT22;11029;47.820;10.534;2023-06-26T09:51:34;25.80;41.00
21734;DHT22;11029;47.820;10.534;2023-06-26T09:54:03;25.70;40.70
21734;DHT22;11029;47.820;10.534;2023-06-26T09:56:33;25.60;40.60
21734;DHT22;11029;47.820;10.534;2023-06-26T09:59:01;25.70;40.00
21734;DHT22;11029;47.820;10.534;2023-06-26T10:01:29;25.90;40.40
21734;DHT22;11029;47.820;10.534;2023-06-26T10:03:56;25.60;40.70
21734;DHT22;11029;47.820;10.534;2023-06-26T10:06:45;25.60;40.30
21734;DHT22;11029;47.820;10.534;2023-06-26T10:09:15;25.80;40.50
21734;DHT22;11029;47.820;10.534;2023-06-26T10:11:58;25.80;40.50
21734;DHT22;11029;47.820;10.534;2023-06-26T10:14:27;25.80;40.60
21734;DHT22;11029;47.820;10.534;2023-06-26T10:16:59;25.80;40.30
21734;DHT22;11029;47.820;10.534;2023-06-26T10:19:28;25.90;40.20
21734;DHT22;11029;47.820;10.534;2023-06-26T10:21:56;26.00;40.30
21734;DHT22;11029;47.820;10.534;2023-06-26T10:24:25;26.00;41.80
21734;DHT22;11029;47.820;10.534;2023-06-26T10:26:57;26.10;40.70
21734;DHT22;11029;47.820;10.534;2023-06-26T10:29:26;26.20;39.70
21734;DHT22;11029;47.820;10.534;2023-06-26T10:31:57;26.10;40.50
21734;DHT22;11029;47.820;10.534;2023-06-26T10:34:26;26.10;40.30
21734;DHT22;11029;47.820;10.534;2023-06-26T10:37:01;26.00;41.00
21734;DHT22;11029;47.820;10.534;2023-06-26T10:39:45;25.90;41.50
21734;DHT22;11029;47.820;10.534;2023-06-26T10:42:14;26.20;42.30
21734;DHT22;11029;47.820;10.534;2023-06-26T10:44:43;26.30;40.60
21734;DHT22;11029;47.820;10.534;2023-06-26T10:49:57;26.50;40.50
21734;DHT22;11029;47.820;10.534;2023-06-26T10:53:16;26.60;40.30
21734;DHT22;11029;47.820;10.534;2023-06-26T10:56:07;26.60;40.70
21734;DHT22;11029;47.820;10.534;2023-06-26T10:58:41;26.70;40.80
21734;DHT22;11029;47.820;10.534;2023-06-26T11:01:22;26.60;41.30
21734;DHT22;11029;47.820;10.534;2023-06-26T11:06:29;26.80;40.30
21734;DHT22;11029;47.820;10.534;2023-06-26T11:09:09;26.70;40.90
21734;DHT22;11029;47.820;10.534;2023-06-26T11:14:21;26.80;40.80
21734;DHT22;11029;47.820;10.534;2023-06-26T11:16:51;26.80;41.00
21734;DHT22;11029;47.820;10.534;2023-06-26T11:19:19;26.70;41.90
21734;DHT22;11029;47.820;10.534;2023-06-26T11:21:47;26.60;41.30
21734;DHT22;11029;47.820;10.534;2023-06-26T11:24:20;26.80;40.90
21734;DHT22;11029;47.820;10.534;2023-06-26T11:26:47;26.80;40.50
21734;DHT22;11029;47.820;10.534;2023-06-26T11:29:14;26.40;41.30
21734;DHT22;11029;47.820;10.534;2023-06-26T11:31:41;26.20;42.70
21734;DHT22;11029;47.820;10.534;2023-06-26T11:34:11;26.30;41.00
21734;DHT22;11029;47.820;10.534;2023-06-26T11:36:41;26.70;42.00
21734;DHT22;11029;47.820;10.534;2023-06-26T11:39:09;26.90;40.50
21734;DHT22;11029;47.820;10.534;2023-06-26T11:41:38;27.10;39.90
21734;DHT22;11029;47.820;10.534;2023-06-26T11:44:07;27.30;39.20
21734;DHT22;11029;47.820;10.534;2023-06-26T11:46:36;27.10;38.80
21734;DHT22;11029;47.820;10.534;2023-06-26T11:49:07;26.90;39.30
21734;DHT22;11029;47.820;10.534;2023-06-26T11:51:35;27.00;38.30
21734;DHT22;11029;47.820;10.534;2023-06-26T11:54:04;27.00;38.70
21734;DHT22;11029;47.820;10.534;2023-06-26T11:56:31;27.20;40.00
21734;DHT22;11029;47.820;10.534;2023-06-26T11:59:02;27.20;39.00
21734;DHT22;11029;47.820;10.534;2023-06-26T12:01:35;27.10;40.00
21734;DHT22;11029;47.820;10.534;2023-06-26T12:04:08;27.20;40.20
21734;DHT22;11029;47.820;10.534;2023-06-26T12:06:37;27.30;40.30
21734;DHT22;11029;47.820;10.534;2023-06-26T12:09:07;27.30;39.80
21734;DHT22;11029;47.820;10.534;2023-06-26T12:11:38;26.90;39.80
21734;DHT22;11029;47.820;10.534;2023-06-26T12:14:06;26.50;40.60
21734;DHT22;11029;47.820;10.534;2023-06-26T12:16:34;26.40;40.40
21734;DHT22;11029;47.820;10.534;2023-06-26T12:19:06;26.40;41.00
21734;DHT22;11029;47.820;10.534;2023-06-26T12:24:06;26.80;39.50
21734;DHT22;11029;47.820;10.534;2023-06-26T12:26:34;26.90;38.20
21734;DHT22;11029;47.820;10.534;2023-06-26T12:31:31;27.00;39.00
21734;DHT22;11029;47.820;10.534;2023-06-26T12:34:00;27.10;38.40
21734;DHT22;11029;47.820;10.534;2023-06-26T12:36:27;27.30;37.80
21734;DHT22;11029;47.820;10.534;2023-06-26T12:38:54;27.40;38.20
21734;DHT22;11029;47.820;10.534;2023-06-26T12:41:24;27.40;37.40
21734;DHT22;11029;47.820;10.534;2023-06-26T12:43:56;27.30;36.70
21734;DHT22;11029;47.820;10.534;2023-06-26T12:46:35;27.40;37.60
21734;DHT22;11029;47.820;10.534;2023-06-26T12:49:02;27.70;34.70
21734;DHT22;11029;47.820;10.534;2023-06-26T12:51:35;27.80;35.20
21734;DHT22;11029;47.820;10.534;2023-06-26T12:54:02;27.60;36.20
21734;DHT22;11029;47.820;10.534;2023-06-26T12:56:29;27.80;36.80
21734;DHT22;11029;47.820;10.534;2023-06-26T12:58:57;27.90;37.40
21734;DHT22;11029;47.820;10.534;2023-06-26T13:01:24;28.10;36.40
21734;DHT22;11029;47.820;10.534;2023-06-26T13:03:51;28.20;36.00
21734;DHT22;11029;47.820;10.534;2023-06-26T13:06:19;28.50;35.90
21734;DHT22;11029;47.820;10.534;2023-06-26T13:08:46;28.20;34.90
21734;DHT22;11029;47.820;10.534;2023-06-26T13:11:13;28.20;36.10
21734;DHT22;11029;47.820;10.534;2023-06-26T13:13:43;28.20;36.00
21734;DHT22;11029;47.820;10.534;2023-06-26T13:16:17;28.20;35.90
21734;DHT22;11029;47.820;10.534;2023-06-26T13:18:45;28.10;35.10
21734;DHT22;11029;47.820;10.534;2023-06-26T13:21:12;28.30;34.60
21734;DHT22;11029;47.820;10.534;2023-06-26T13:23:40;28.50;35.10
21734;DHT22;11029;47.820;10.534;2023-06-26T13:26:07;28.60;35.10
21734;DHT22;11029;47.820;10.534;2023-06-26T13:28:35;28.70;35.00
21734;DHT22;11029;47.820;10.534;2023-06-26T13:31:03;28.60;35.40
21734;DHT22;11029;47.820;10.534;2023-06-26T13:33:30;28.60;35.80
21734;DHT22;11029;47.820;10.534;2023-06-26T13:35:58;28.90;35.00
21734;DHT22;11029;47.820;10.534;2023-06-26T13:38:25;28.80;35.00
21734;DHT22;11029;47.820;10.534;2023-06-26T13:40:53;28.90;34.50
21734;DHT22;11029;47.820;10.534;2023-06-26T13:43:21;28.50;35.80
21734;DHT22;11029;47.820;10.534;2023-06-26T13:45:49;27.90;36.70
21734;DHT22;11029;47.820;10.534;2023-06-26T13:48:16;27.60;36.50
21734;DHT22;11029;47.820;10.534;2023-06-26T13:50:45;27.50;36.70
21734;DHT22;11029;47.820;10.534;2023-06-26T13:53:20;27.50;36.50
21734;DHT22;11029;47.820;10.534;2023-06-26T13:55:48;27.50;36.80
21734;DHT22;11029;47.820;10.534;2023-06-26T13:58:15;27.50;37.10
21734;DHT22;11029;47.820;10.534;2023-06-26T14:00:42;27.50;36.50
21734;DHT22;11029;47.820;10.534;2023-06-26T14:03:11;27.60;37.00
21734;DHT22;11029;47.820;10.534;2023-06-26T14:05:38;27.70;36.70
21734;DHT22;11029;47.820;10.534;2023-06-26T14:08:08;27.50;37.10
21734;DHT22;11029;47.820;10.534;2023-06-26T14:10:36;27.50;38.80
21734;DHT22;11029;47.820;10.534;2023-06-26T14:13:04;27.30;39.30
21734;DHT22;11029;47.820;10.534;2023-06-26T14:15:32;27.20;38.20
21734;DHT22;11029;47.820;10.534;2023-06-26T14:17:59;27.00;39.60
21734;DHT22;11029;47.820;10.534;2023-06-26T14:20:26;26.70;40.10
21734;DHT22;11029;47.820;10.534;2023-06-26T14:22:54;26.50;39.60
21734;DHT22;11029;47.820;10.534;2023-06-26T14:25:21;26.20;40.00
21734;DHT22;11029;47.820;10.534;2023-06-26T14:27:53;26.10;40.60
21734;DHT22;11029;47.820;10.534;2023-06-26T14:30:42;26.00;40.80
21734;DHT22;11029;47.820;10.534;2023-06-26T14:33:09;25.80;41.60
21734;DHT22;11029;47.820;10.534;2023-06-26T14:35:36;25.70;41.50
21734;DHT22;11029;47.820;10.534;2023-06-26T14:38:03;25.30;44.90
21734;DHT22;11029;47.820;10.534;2023-06-26T14:40:30;24.90;46.10
21734;DHT22;11029;47.820;10.534;2023-06-26T14:42:58;24.70;47.30
21734;DHT22;11029;47.820;10.534;2023-06-26T14:45:25;24.60;47.80
21734;DHT22;11029;47.820;10.534;2023-06-26T14:47:53;24.40;49.90
21734;DHT22;11029;47.820;10.534;2023-06-26T14:50:20;24.20;51.20
21734;DHT22;11029;47.820;10.534;2023-06-26T14:52:47;24.00;52.30
21734;DHT22;11029;47.820;10.534;2023-06-26T14:55:15;23.90;52.90
21734;DHT22;11029;47.820;10.534;2023-06-26T14:57:42;23.80;53.70
21734;DHT22;11029;47.820;10.534;2023-06-26T15:00:09;23.80;53.90
21734;DHT22;11029;47.820;10.534;2023-06-26T15:02:36;23.90;54.00
21734;DHT22;11029;47.820;10.534;2023-06-26T15:05:04;24.10;53.50
21734;DHT22;11029;47.820;10.534;2023-06-26T15:07:31;24.30;51.80
21734;DHT22;11029;47.820;10.534;2023-06-26T15:09:59;24.60;50.90
21734;DHT22;11029;47.820;10.534;2023-06-26T15:12:35;24.90;49.00
21734;DHT22;11029;47.820;10.534;2023-06-26T15:15:30;25.00;49.40
21734;DHT22;11029;47.820;10.534;2023-06-26T15:18:31;25.20;48.10
21734;DHT22;11029;47.820;10.534;2023-06-26T15:21:10;25.70;48.60
21734;DHT22;11029;47.820;10.534;2023-06-26T15:24:00;26.10;45.60
21734;DHT22;11029;47.820;10.534;2023-06-26T15:26:51;26.30;46.00
21734;DHT22;11029;47.820;10.534;2023-06-26T15:29:26;26.20;46.50
21734;DHT22;11029;47.820;10.534;2023-06-26T15:32:10;26.00;47.20
21734;DHT22;11029;47.820;10.534;2023-06-26T15:34:53;26.20;45.70
21734;DHT22;11029;47.820;10.534;2023-06-26T15:37:20;26.40;45.10
21734;DHT22;11029;47.820;10.534;2023-06-26T15:39:47;26.30;45.70
21734;DHT22;11029;47.820;10.534;2023-06-26T15:42:14;26.00;46.40
21734;DHT22;11029;47.820;10.534;2023-06-26T15:44:41;25.90;46.50